Time;durP1;ratioP1;P1;durP2;ratioP2;P2;SDS_P1;SDS_P2;PMS_P1;PMS_P2;Temp;Humidity;BMP_temperature;BMP_pressure;BME280_temperature;BME280_humidity;BME280_pressure;Samples;Min_cycle;Max_cycle;Signal;HPM_P1;HPM_P2
2022/05/21 00:01:43;;;;;;;4.18;3.78;;;18.80;48.80;;;;;;6170803;23;20142;-85
2022/05/21 00:04:10;;;;;;;4.25;3.50;;;18.80;48.80;;;;;;6170533;23;20137;-85
2022/05/21 00:06:35;;;;;;;3.78;3.40;;;18.80;48.80;;;;;;6195356;23;20145;-87
2022/05/21 00:09:02;;;;;;;4.38;3.80;;;18.80;48.70;;;;;;6195710;23;20507;-87
2022/05/21 00:11:28;;;;;;;4.78;3.60;;;18.80;48.70;;;;;;6195537;23;20188;-86
2022/05/21 00:13:55;;;;;;;4.40;4.00;;;18.80;48.80;;;;;;6195685;23;20153;-84
2022/05/21 00:16:22;;;;;;;3.80;3.47;;;18.80;48.80;;;;;;6195951;23;20188;-88
2022/05/21 00:18:49;;;;;;;4.10;3.70;;;18.80;48.80;;;;;;6171449;23;20145;-85
2022/05/21 00:21:15;;;;;;;5.28;3.78;;;18.80;48.80;;;;;;6219996;23;20145;-87
2022/05/21 00:23:41;;;;;;;4.28;3.88;;;18.80;48.70;;;;;;6170337;23;20207;-87
2022/05/21 00:26:09;;;;;;;3.88;3.58;;;18.80;48.80;;;;;;6170815;23;20137;-83
2022/05/21 00:28:39;;;;;;;4.95;3.70;;;18.80;48.90;;;;;;6195630;23;20212;-84
2022/05/21 00:31:07;;;;;;;5.53;3.55;;;18.80;48.70;;;;;;6195296;23;20200;-85
2022/05/21 00:33:34;;;;;;;4.05;3.55;;;18.80;48.80;;;;;;6195601;23;20157;-86
2022/05/21 00:36:00;;;;;;;4.50;3.70;;;18.70;48.70;;;;;;6189738;23;20233;-88
2022/05/21 00:38:25;;;;;;;4.53;3.58;;;18.80;48.60;;;;;;6165678;23;20145;-85
2022/05/21 00:40:53;;;;;;;3.80;3.50;;;18.80;48.70;;;;;;6165350;23;20145;-86
2022/05/21 00:43:52;;;;;;;4.07;3.67;;;18.70;48.60;;;;;;6190132;23;20153;-84
2022/05/21 00:46:20;;;;;;;3.90;3.50;;;18.80;48.70;;;;;;6216435;23;20589;-84
2022/05/21 00:48:56;;;;;;;4.00;3.60;;;18.80;48.70;;;;;;6190422;23;20134;-85
2022/05/21 00:51:24;;;;;;;3.78;3.47;;;18.80;48.60;;;;;;6190670;23;20557;-87
2022/05/21 00:53:51;;;;;;;3.60;3.30;;;18.80;48.70;;;;;;6165492;23;20484;-85
2022/05/21 00:56:19;;;;;;;4.00;3.60;;;18.80;48.60;;;;;;6190368;23;20671;-84
2022/05/21 01:01:32;;;;;;;3.63;3.33;;;18.80;48.60;;;;;;6215971;23;20137;-85
2022/05/21 01:03:58;;;;;;;4.43;3.53;;;18.80;48.60;;;;;;6190274;23;20145;-86
2022/05/21 01:06:24;;;;;;;4.03;3.50;;;18.80;48.70;;;;;;6165646;23;20577;-85
2022/05/21 01:08:50;;;;;;;4.38;3.75;;;18.80;48.70;;;;;;6214971;23;20157;-86
2022/05/21 01:11:16;;;;;;;4.55;3.80;;;18.80;48.70;;;;;;6214792;23;20137;-83
2022/05/21 01:13:45;;;;;;;3.67;3.38;;;18.80;48.70;;;;;;6189981;23;20134;-87
2022/05/21 01:16:11;;;;;;;4.18;3.78;;;18.80;48.70;;;;;;6165144;23;20232;-88
2022/05/21 01:18:38;;;;;;;3.88;3.55;;;18.80;48.70;;;;;;6165533;23;20146;-84
2022/05/21 01:21:04;;;;;;;4.18;3.60;;;18.80;48.60;;;;;;6214613;23;20458;-85
2022/05/21 01:23:30;;;;;;;4.03;3.63;;;18.80;48.60;;;;;;6189993;23;20228;-84
2022/05/21 01:25:57;;;;;;;3.95;3.65;;;18.80;48.60;;;;;;6189911;23;20138;-84
2022/05/21 01:28:24;;;;;;;4.13;3.60;;;18.80;48.70;;;;;;6189857;23;20135;-86
2022/05/21 01:30:52;;;;;;;3.97;3.45;;;18.80;48.70;;;;;;6190036;23;20135;-84
2022/05/21 01:33:21;;;;;;;4.57;3.78;;;18.70;48.60;;;;;;6165138;23;20192;-84
2022/05/21 01:35:46;;;;;;;3.97;3.60;;;18.80;48.70;;;;;;6164848;23;20210;-86
2022/05/21 01:38:13;;;;;;;4.43;3.58;;;18.70;48.60;;;;;;6214782;23;20669;-87
2022/05/21 01:40:40;;;;;;;4.30;3.40;;;18.70;48.70;;;;;;6189568;23;20220;-86
2022/05/21 01:45:52;;;;;;;4.45;3.92;;;18.70;48.70;;;;;;6193477;23;20166;-85
2022/05/21 01:48:21;;;;;;;3.90;3.50;;;18.70;48.70;;;;;;6214743;23;20153;-84
2022/05/21 01:50:48;;;;;;;3.83;3.50;;;18.80;48.70;;;;;;6189883;23;20131;-84
2022/05/21 01:53:15;;;;;;;4.03;3.50;;;18.70;48.60;;;;;;6164654;23;20237;-84
2022/05/21 01:55:41;;;;;;;4.00;3.60;;;18.70;48.60;;;;;;6165556;23;20201;-84
2022/05/21 01:58:06;;;;;;;3.90;3.25;;;18.80;48.60;;;;;;6189598;23;20137;-84
2022/05/21 02:00:33;;;;;;;4.00;3.60;;;18.80;48.60;;;;;;6189449;23;20134;-87
2022/05/21 02:03:00;;;;;;;3.67;3.28;;;18.80;48.60;;;;;;6189670;23;20188;-85
2022/05/21 02:05:27;;;;;;;3.95;3.35;;;18.80;48.70;;;;;;6189675;23;20158;-88
2022/05/21 02:07:52;;;;;;;3.80;3.50;;;18.70;48.60;;;;;;6164713;23;20138;-84
2022/05/21 02:10:19;;;;;;;3.83;3.40;;;18.70;48.70;;;;;;6214252;23;20138;-84
2022/05/21 02:12:44;;;;;;;3.65;3.35;;;18.70;48.70;;;;;;6164595;23;20593;-85
2022/05/21 02:15:10;;;;;;;4.75;3.60;;;18.70;48.70;;;;;;6216482;23;20172;-85
2022/05/21 02:17:36;;;;;;;4.03;3.55;;;18.70;48.70;;;;;;6189427;23;20131;-83
2022/05/21 02:20:04;;;;;;;3.58;3.28;;;18.70;48.70;;;;;;6189489;23;20130;-87
2022/05/21 02:22:29;;;;;;;3.83;3.15;;;18.70;48.70;;;;;;6214349;23;20126;-86
2022/05/21 02:24:55;;;;;;;4.32;3.17;;;18.70;48.70;;;;;;6189050;23;20142;-86
2022/05/21 02:27:21;;;;;;;4.38;3.97;;;18.70;48.70;;;;;;6164806;23;20195;-84
2022/05/21 02:29:46;;;;;;;4.10;3.70;;;18.60;48.70;;;;;;6214022;23;20584;-86
2022/05/21 02:32:14;;;;;;;3.78;3.20;;;18.70;48.70;;;;;;6164524;23;20139;-87
2022/05/21 02:34:40;;;;;;;3.42;3.13;;;18.70;48.70;;;;;;6190183;23;20166;-84
2022/05/21 02:39:54;;;;;;;3.88;3.50;;;18.70;48.70;;;;;;6214568;23;20631;-86
2022/05/21 02:45:07;;;;;;;3.75;3.40;;;18.70;48.70;;;;;;6194837;23;20134;-87
2022/05/21 02:47:34;;;;;;;3.90;3.47;;;18.70;48.70;;;;;;6191086;23;20146;-83
2022/05/21 02:50:00;;;;;;;4.07;3.67;;;18.70;48.80;;;;;;6191385;23;20146;-86
2022/05/21 02:52:26;;;;;;;3.95;3.55;;;18.70;48.70;;;;;;6191202;23;20145;-84
2022/05/21 02:54:52;;;;;;;3.88;3.35;;;18.80;48.80;;;;;;6216359;23;20652;-86
2022/05/21 02:57:19;;;;;;;3.40;3.10;;;18.70;48.80;;;;;;6166493;23;20149;-85
2022/05/21 02:59:49;;;;;;;3.95;3.35;;;18.70;48.90;;;;;;6166363;23;20138;-83
2022/05/21 03:02:14;;;;;;;3.78;3.38;;;18.60;48.80;;;;;;6168544;23;20477;-84
2022/05/21 03:04:40;;;;;;;4.00;3.60;;;18.70;48.80;;;;;;6191483;23;20164;-84
2022/05/21 03:07:06;;;;;;;3.88;3.47;;;18.70;48.90;;;;;;6191460;23;20154;-87
2022/05/21 03:12:15;;;;;;;3.88;3.47;;;18.70;48.90;;;;;;6195327;23;20188;-83
2022/05/21 03:14:42;;;;;;;3.70;3.40;;;18.70;48.90;;;;;;6191625;23;20221;-85
2022/05/21 03:17:07;;;;;;;3.75;3.35;;;18.60;48.90;;;;;;6217091;23;20232;-84
2022/05/21 03:19:35;;;;;;;3.95;3.55;;;18.70;48.80;;;;;;6191810;23;20566;-84
2022/05/21 03:22:01;;;;;;;3.92;3.40;;;18.70;48.80;;;;;;6192112;23;20186;-85
2022/05/21 03:24:27;;;;;;;3.53;3.22;;;18.70;48.90;;;;;;6191519;23;20558;-85
2022/05/21 03:26:53;;;;;;;3.50;3.20;;;18.70;48.80;;;;;;6192209;23;20162;-87
2022/05/21 03:29:22;;;;;;;4.40;3.97;;;18.70;48.80;;;;;;6191471;23;20461;-84
2022/05/21 03:31:48;;;;;;;3.83;3.15;;;18.60;48.80;;;;;;6192284;23;20628;-86
2022/05/21 03:34:17;;;;;;;3.75;3.45;;;18.70;48.90;;;;;;6166583;23;20142;-86
2022/05/21 03:36:44;;;;;;;4.18;3.45;;;18.70;48.80;;;;;;6191901;23;20703;-87
2022/05/21 03:39:11;;;;;;;4.28;3.33;;;18.70;48.90;;;;;;6217285;23;20134;-85
2022/05/21 03:41:37;;;;;;;3.88;3.55;;;18.70;48.90;;;;;;6166808;23;20556;-86
2022/05/21 03:44:04;;;;;;;4.43;3.42;;;18.70;48.90;;;;;;6191874;23;20131;-87
2022/05/21 03:46:32;;;;;;;3.60;3.30;;;18.70;48.90;;;;;;6191761;23;20150;-88
2022/05/21 03:48:58;;;;;;;4.07;3.42;;;18.70;48.80;;;;;;6216581;23;20130;-85
2022/05/21 03:51:24;;;;;;;3.33;3.03;;;18.70;48.70;;;;;;6191575;23;20188;-84
2022/05/21 03:53:49;;;;;;;3.58;3.20;;;18.70;48.70;;;;;;6191539;23;20135;-86
2022/05/21 03:56:20;;;;;;;3.63;3.33;;;18.70;48.70;;;;;;6191058;23;20184;-86
2022/05/21 03:58:46;;;;;;;3.67;3.33;;;18.80;48.70;;;;;;6217104;23;20506;-85
2022/05/21 04:01:13;;;;;;;4.32;3.40;;;18.70;48.60;;;;;;6216239;23;20213;-84
2022/05/21 04:03:39;;;;;;;3.55;3.25;;;18.80;48.60;;;;;;6191556;23;20126;-86
2022/05/21 04:06:04;;;;;;;4.03;3.40;;;18.90;48.60;;;;;;6216185;23;20218;-84
2022/05/21 04:08:30;;;;;;;3.50;3.20;;;18.70;48.60;;;;;;6191243;23;20179;-84
2022/05/21 04:10:55;;;;;;;3.70;3.40;;;18.80;48.60;;;;;;6216225;23;20577;-88
2022/05/21 04:13:22;;;;;;;4.35;3.35;;;18.80;48.70;;;;;;6190669;23;20156;-84
2022/05/21 04:15:49;;;;;;;3.72;3.30;;;18.70;48.60;;;;;;6191049;23;20243;-87
2022/05/21 04:18:17;;;;;;;4.38;3.38;;;18.80;48.70;;;;;;6190720;23;20217;-87
2022/05/21 04:20:44;;;;;;;3.80;3.47;;;18.80;48.60;;;;;;6165993;23;20150;-84
2022/05/21 04:23:09;;;;;;;3.42;3.13;;;18.80;48.70;;;;;;6190669;23;20138;-87
2022/05/21 04:25:36;;;;;;;3.90;3.22;;;18.80;48.70;;;;;;6190858;23;20523;-83
2022/05/21 04:28:01;;;;;;;3.78;3.38;;;18.80;48.70;;;;;;6165823;23;20172;-85
2022/05/21 04:30:28;;;;;;;3.83;3.50;;;18.80;48.70;;;;;;6190868;23;20142;-86
2022/05/21 04:32:55;;;;;;;3.50;3.20;;;18.80;48.60;;;;;;6217475;23;20127;-86
2022/05/21 04:35:20;;;;;;;3.63;3.33;;;18.80;48.60;;;;;;6215570;23;20217;-86
2022/05/21 04:37:47;;;;;;;3.80;3.50;;;18.80;48.60;;;;;;6215885;23;20189;-85
2022/05/21 04:40:15;;;;;;;4.25;3.42;;;18.80;48.60;;;;;;6215571;23;20134;-85
2022/05/21 04:42:41;;;;;;;3.70;3.40;;;18.80;48.60;;;;;;6166220;23;20154;-84
2022/05/21 04:45:08;;;;;;;3.75;3.35;;;18.80;48.60;;;;;;6165882;23;20208;-86
2022/05/21 04:47:35;;;;;;;3.85;3.40;;;18.80;48.50;;;;;;6190714;23;20130;-85
2022/05/21 04:50:01;;;;;;;4.75;3.50;;;18.80;48.50;;;;;;6190394;23;20134;-85
2022/05/21 04:52:28;;;;;;;3.40;3.10;;;18.80;48.50;;;;;;6190870;23;20229;-85
2022/05/21 04:54:55;;;;;;;3.92;3.63;;;18.80;48.50;;;;;;6190643;23;20173;-87
2022/05/21 04:57:21;;;;;;;3.63;3.30;;;18.90;48.50;;;;;;6215781;23;20130;-84
2022/05/21 04:59:47;;;;;;;3.50;3.20;;;18.80;48.40;;;;;;6215653;23;20168;-86
2022/05/21 05:02:13;;;;;;;3.75;3.35;;;18.80;48.50;;;;;;6190437;23;20198;-84
2022/05/21 05:04:39;;;;;;;3.88;3.47;;;18.80;48.40;;;;;;6215586;23;20557;-86
2022/05/21 05:07:07;;;;;;;3.58;3.28;;;18.90;48.50;;;;;;6214984;23;20558;-84
2022/05/21 05:09:42;;;;;;;3.67;3.30;;;18.80;48.40;;;;;;6215332;23;20141;-85
2022/05/21 05:12:08;;;;;;;3.53;3.22;;;18.90;48.50;;;;;;6215409;23;20516;-87
2022/05/21 05:14:37;;;;;;;3.50;3.20;;;18.80;48.40;;;;;;6190214;23;20209;-85
2022/05/21 05:17:03;;;;;;;3.20;2.90;;;18.80;48.30;;;;;;6165937;23;20613;-87
2022/05/21 05:19:30;;;;;;;3.63;3.30;;;18.90;48.40;;;;;;6190411;23;20141;-85
2022/05/21 05:21:57;;;;;;;3.88;3.25;;;18.90;48.40;;;;;;6190680;23;20131;-88
2022/05/21 05:24:23;;;;;;;3.55;3.25;;;18.90;49.10;;;;;;6165531;23;20193;-84
2022/05/21 05:26:48;;;;;;;3.25;2.95;;;18.90;48.40;;;;;;6165148;23;20142;-86
2022/05/21 05:29:15;;;;;;;3.55;3.25;;;18.80;48.40;;;;;;6190027;23;20142;-86
2022/05/21 05:31:41;;;;;;;3.50;3.20;;;18.80;48.40;;;;;;6190452;23;20134;-86
2022/05/21 05:34:06;;;;;;;3.40;3.10;;;18.80;48.40;;;;;;6165469;23;20184;-85
2022/05/21 05:36:32;;;;;;;4.32;3.67;;;18.90;48.50;;;;;;6190121;23;20189;-85
2022/05/21 05:38:59;;;;;;;3.88;3.55;;;18.80;48.40;;;;;;6196808;23;20158;-86
2022/05/21 05:41:26;;;;;;;3.45;3.15;;;18.80;48.40;;;;;;6189779;23;20185;-86
2022/05/21 05:43:54;;;;;;;3.90;3.50;;;18.90;48.30;;;;;;6189974;23;20130;-85
2022/05/21 05:46:19;;;;;;;3.58;3.15;;;18.80;48.30;;;;;;6165093;23;20604;-86
2022/05/21 05:48:45;;;;;;;3.20;2.90;;;18.90;48.40;;;;;;6165198;23;20138;-84
2022/05/21 05:51:13;;;;;;;3.40;3.10;;;18.90;48.50;;;;;;6189920;23;20131;-85
2022/05/21 05:53:38;;;;;;;3.47;3.17;;;18.80;48.50;;;;;;6214811;23;20457;-84
2022/05/21 05:56:09;;;;;;;3.30;3.00;;;18.80;48.50;;;;;;6164516;23;20170;-84
2022/05/21 06:01:14;;;;;;;4.25;3.20;;;18.80;48.70;;;;;;6214536;23;20137;-84
2022/05/21 06:03:42;;;;;;;3.55;3.25;;;18.80;48.90;;;;;;6215855;23;20511;-88
2022/05/21 06:06:07;;;;;;;4.10;3.13;;;18.80;49.00;;;;;;6215096;23;20130;-86
2022/05/21 06:08:33;;;;;;;3.58;3.28;;;18.80;49.10;;;;;;6164186;23;20153;-86
2022/05/21 06:10:59;;;;;;;3.60;3.30;;;18.80;49.00;;;;;;6165110;23;20161;-84
2022/05/21 06:13:24;;;;;;;3.42;3.08;;;18.70;49.00;;;;;;6214114;23;20558;-85
2022/05/21 06:15:50;;;;;;;3.47;3.17;;;18.80;49.10;;;;;;6189055;23;20216;-85
2022/05/21 06:18:19;;;;;;;3.30;3.00;;;18.80;49.20;;;;;;6190002;23;20142;-87
2022/05/21 06:20:45;;;;;;;4.18;3.53;;;18.80;48.80;;;;;;6191852;23;20180;-85
2022/05/21 06:23:12;;;;;;;3.80;3.50;;;18.90;48.80;;;;;;6216355;23;20213;-87
2022/05/21 06:25:38;;;;;;;5.05;3.30;;;18.90;48.90;;;;;;6191609;23;20141;-84
2022/05/21 06:28:07;;;;;;;3.45;3.15;;;18.90;48.70;;;;;;6215965;23;20165;-87
2022/05/21 06:30:35;;;;;;;3.55;3.13;;;18.90;48.80;;;;;;6217678;23;20146;-84
2022/05/21 06:33:18;;;;;;;4.03;2.97;;;18.80;48.80;;;;;;6167572;23;20135;-86
2022/05/21 06:35:46;;;;;;;5.18;3.05;;;18.80;49.00;;;;;;6195707;23;20561;-84
2022/05/21 06:38:11;;;;;;;6.43;3.60;;;18.90;49.20;;;;;;6196261;23;20152;-87
2022/05/21 06:40:37;;;;;;;4.80;2.90;;;18.80;49.00;;;;;;6196007;23;20145;-85
2022/05/21 06:43:03;;;;;;;3.25;2.95;;;18.90;49.00;;;;;;6195898;23;20146;-87
2022/05/21 06:45:31;;;;;;;4.22;3.13;;;18.80;49.00;;;;;;6196200;23;20157;-87
2022/05/21 06:48:06;;;;;;;3.70;3.30;;;18.80;49.00;;;;;;6171862;23;20149;-83
2022/05/21 06:50:32;;;;;;;3.60;3.30;;;18.90;49.10;;;;;;6196312;23;20224;-85
2022/05/21 06:52:58;;;;;;;4.10;3.15;;;18.90;49.00;;;;;;6221120;23;20169;-85
2022/05/21 06:55:24;;;;;;;3.60;3.30;;;18.90;48.90;;;;;;6171303;23;20299;-85
2022/05/21 06:57:51;;;;;;;4.45;3.28;;;18.80;48.90;;;;;;6195591;23;20173;-87
2022/05/21 07:00:18;;;;;;;4.25;3.00;;;18.90;49.00;;;;;;6195880;23;20134;-84
2022/05/21 07:02:44;;;;;;;4.07;3.20;;;18.90;49.00;;;;;;6195858;23;20142;-84
2022/05/21 07:07:47;;;;;;;3.40;3.05;;;18.90;48.70;;;;;;6200814;23;20556;-85
2022/05/21 07:10:18;;;;;;;3.08;2.80;;;18.90;48.40;;;;;;6195690;23;20159;-86
2022/05/21 07:12:43;;;;;;;3.30;3.00;;;18.90;48.50;;;;;;6221082;23;20140;-85
2022/05/21 07:15:09;;;;;;;4.07;2.80;;;18.90;48.30;;;;;;6195830;23;20193;-84
2022/05/21 07:17:35;;;;;;;3.25;2.90;;;18.90;47.80;;;;;;6170912;23;20151;-85
2022/05/21 07:20:03;;;;;;;4.95;2.60;;;18.90;48.10;;;;;;6195718;23;20208;-87
2022/05/21 07:22:30;;;;;;;3.85;2.78;;;18.90;47.90;;;;;;6172234;23;20141;-87
2022/05/21 07:24:56;;;;;;;3.25;2.95;;;18.90;48.20;;;;;;6247585;23;20141;-85
2022/05/21 07:27:23;;;;;;;2.97;2.78;;;18.90;48.10;;;;;;6195638;23;20634;-87
2022/05/21 07:29:48;;;;;;;3.00;2.75;;;18.90;47.70;;;;;;6220661;23;20126;-86
2022/05/21 07:32:22;;;;;;;2.95;2.65;;;18.90;47.70;;;;;;6196095;23;20149;-85
2022/05/21 07:34:48;;;;;;;3.50;3.20;;;18.90;47.80;;;;;;6195335;23;20683;-87
2022/05/21 07:37:15;;;;;;;2.90;2.67;;;18.90;47.90;;;;;;6190486;23;20221;-84
2022/05/21 07:39:41;;;;;;;3.28;2.70;;;18.90;47.60;;;;;;6190380;23;20146;-85
2022/05/21 07:42:06;;;;;;;2.97;2.50;;;18.90;47.50;;;;;;6190529;23;20596;-84
2022/05/21 07:44:32;;;;;;;3.33;2.67;;;18.90;47.30;;;;;;6215573;23;20140;-86
2022/05/21 07:46:58;;;;;;;4.82;3.40;;;18.90;47.40;;;;;;6190516;23;20131;-87
2022/05/21 07:49:24;;;;;;;2.80;2.50;;;18.90;47.20;;;;;;6190830;23;20137;-83
2022/05/21 07:51:50;;;;;;;3.28;2.97;;;18.90;47.20;;;;;;6215412;23;20138;-86
2022/05/21 07:54:17;;;;;;;3.50;2.80;;;18.90;47.40;;;;;;6215459;23;20584;-84
2022/05/21 07:56:44;;;;;;;3.10;2.72;;;18.90;47.30;;;;;;6189235;23;20553;-86
2022/05/21 07:59:10;;;;;;;3.45;2.70;;;18.90;47.10;;;;;;6217042;23;20185;-84
2022/05/21 08:01:35;;;;;;;3.25;2.88;;;19.00;46.60;;;;;;6216824;23;20135;-84
2022/05/21 08:04:01;;;;;;;2.92;2.58;;;19.00;46.50;;;;;;6217451;23;20134;-84
2022/05/21 08:06:28;;;;;;;3.05;2.60;;;19.00;46.80;;;;;;6166002;23;20146;-84
2022/05/21 08:08:54;;;;;;;3.10;2.80;;;19.00;47.00;;;;;;6190595;23;20134;-85
2022/05/21 08:11:20;;;;;;;3.33;2.90;;;19.00;47.00;;;;;;6166576;23;20232;-85
2022/05/21 08:13:46;;;;;;;3.65;2.58;;;19.00;46.80;;;;;;6215800;23;20162;-85
2022/05/21 08:16:14;;;;;;;3.00;2.70;;;19.00;46.80;;;;;;6190107;23;20182;-84
2022/05/21 08:18:40;;;;;;;3.75;3.10;;;18.90;46.80;;;;;;6216222;23;20565;-84
2022/05/21 08:21:06;;;;;;;3.15;2.85;;;18.90;47.10;;;;;;6167127;23;20237;-86
2022/05/21 08:28:50;;;;;;;2.95;2.65;;;18.80;46.70;;;;;;6216815;23;20215;-86
2022/05/21 08:31:16;;;;;;;3.00;2.70;;;18.80;46.60;;;;;;6216376;23;20134;-85
2022/05/21 08:33:42;;;;;;;2.58;2.38;;;18.90;46.50;;;;;;6215884;23;20696;-84
2022/05/21 08:36:08;;;;;;;3.03;2.65;;;18.90;46.50;;;;;;6190520;23;20225;-84
2022/05/21 08:38:34;;;;;;;3.15;2.85;;;18.90;46.50;;;;;;6166412;23;20246;-87
2022/05/21 08:41:20;;;;;;;3.03;2.72;;;18.90;46.20;;;;;;6216859;23;20127;-86
2022/05/21 08:44:02;;;;;;;2.97;2.67;;;18.90;46.00;;;;;;6216164;23;20134;-85
2022/05/21 08:47:06;;;;;;;2.60;2.40;;;18.90;46.00;;;;;;6194178;23;20130;-87
2022/05/21 08:49:43;;;;;;;4.30;2.67;;;18.90;45.60;;;;;;6217763;23;20157;-85
2022/05/21 08:52:28;;;;;;;3.33;2.70;;;18.90;45.70;;;;;;6193493;23;20130;-84
2022/05/21 08:54:54;;;;;;;2.88;2.60;;;18.90;45.70;;;;;;6217796;23;20172;-84
2022/05/21 08:57:26;;;;;;;3.15;2.85;;;18.90;46.00;;;;;;6166580;23;20236;-87
2022/05/21 08:59:57;;;;;;;5.22;2.83;;;18.90;45.80;;;;;;6168312;23;20157;-87
2022/05/21 09:02:32;;;;;;;4.43;3.10;;;18.90;45.90;;;;;;6193995;23;20612;-88
2022/05/21 09:04:58;;;;;;;4.30;3.20;;;18.90;45.80;;;;;;6168587;23;20149;-88
2022/05/21 09:07:26;;;;;;;3.85;2.65;;;18.80;45.80;;;;;;6195944;23;20158;-89
2022/05/21 09:10:00;;;;;;;4.18;2.50;;;18.90;46.00;;;;;;6172045;23;20150;-87
2022/05/21 09:12:52;;;;;;;3.85;2.80;;;18.80;45.50;;;;;;6219111;23;20559;-87
2022/05/21 09:18:05;;;;;;;3.28;2.83;;;18.90;45.60;;;;;;6197615;23;20493;-88
2022/05/21 09:20:31;;;;;;;3.15;2.50;;;18.90;45.60;;;;;;6169490;23;20499;-87
2022/05/21 09:22:58;;;;;;;3.28;2.90;;;18.90;45.30;;;;;;6218599;23;20134;-87
2022/05/21 09:25:24;;;;;;;3.17;2.75;;;18.90;45.70;;;;;;6193612;23;20499;-87
2022/05/21 09:28:01;;;;;;;4.35;2.85;;;18.90;45.20;;;;;;6216354;23;20130;-86
2022/05/21 09:30:29;;;;;;;3.30;2.60;;;18.90;45.30;;;;;;6192120;23;20577;-83
2022/05/21 09:32:59;;;;;;;2.70;2.33;;;19.00;44.90;;;;;;6167382;23;20200;-85
2022/05/21 09:35:28;;;;;;;3.35;2.50;;;19.00;44.90;;;;;;6166941;23;20597;-85
2022/05/21 09:37:55;;;;;;;4.75;2.80;;;18.90;44.70;;;;;;6170997;23;20149;-85
2022/05/21 09:40:37;;;;;;;5.28;2.72;;;19.00;45.60;;;;;;6197489;23;20137;-88
2022/05/21 09:46:28;;;;;;;5.25;2.97;;;19.00;45.00;;;;;;6208215;23;20536;-88
2022/05/21 09:49:30;;;;;;;6.78;3.00;;;19.00;45.50;;;;;;6249489;23;20588;-86
2022/05/21 09:51:59;;;;;;;6.68;3.53;;;19.00;45.10;;;;;;6177035;23;20148;-86
2022/05/21 09:54:32;;;;;;;5.82;3.33;;;18.90;45.30;;;;;;6196842;23;20209;-87
2022/05/21 09:56:59;;;;;;;3.67;2.80;;;19.00;45.40;;;;;;6196325;23;20142;-85
2022/05/21 09:59:27;;;;;;;5.55;2.75;;;18.90;44.90;;;;;;6222424;23;20130;-87
2022/05/21 10:01:56;;;;;;;7.30;3.10;;;19.00;45.00;;;;;;6173524;23;20142;-84
2022/05/21 10:04:27;;;;;;;2.88;2.40;;;19.00;45.00;;;;;;6172661;23;20138;-86
2022/05/21 10:10:58;;;;;;;4.13;2.75;;;18.90;44.90;;;;;;6173182;23;20141;-87
2022/05/21 10:12:46;;;;;;;4.18;2.83;;;19.00;44.70;;;;;;6224930;23;20482;-89
2022/05/21 10:15:16;;;;;;;5.85;2.80;;;19.00;44.80;;;;;;6197764;23;20584;-88
2022/05/21 10:17:49;;;;;;;6.68;2.75;;;19.00;45.00;;;;;;6171839;23;20588;-86
2022/05/21 10:20:20;;;;;;;5.38;2.67;;;18.90;44.60;;;;;;6249182;23;20600;-86
2022/05/21 10:22:53;;;;;;;4.82;2.88;;;18.90;44.60;;;;;;6198724;23;20130;-88
2022/05/21 10:25:21;;;;;;;9.13;3.00;;;19.00;44.60;;;;;;6170655;23;20209;-86
2022/05/21 10:28:24;;;;;;;3.78;2.80;;;19.00;44.80;;;;;;6198741;23;20168;-85
2022/05/21 10:31:03;;;;;;;7.97;2.80;;;19.00;44.70;;;;;;6246623;23;20130;-85
2022/05/21 10:33:52;;;;;;;7.43;2.83;;;19.00;44.70;;;;;;6172904;23;20133;-85
2022/05/21 10:36:40;;;;;;;4.28;2.90;;;19.00;44.60;;;;;;6200513;23;20268;-86
2022/05/21 10:39:31;;;;;;;4.55;2.40;;;19.00;44.50;;;;;;6197801;23;20157;-85
2022/05/21 10:42:18;;;;;;;6.68;2.60;;;19.10;44.20;;;;;;6246869;23;20137;-85
2022/05/21 10:44:53;;;;;;;4.55;2.88;;;19.10;44.10;;;;;;6194713;23;20232;-85
2022/05/21 10:47:37;;;;;;;6.57;2.70;;;19.10;44.40;;;;;;6194431;23;20148;-85
2022/05/21 10:50:16;;;;;;;4.18;2.60;;;19.10;44.40;;;;;;6246112;23;20134;-84
2022/05/21 10:52:52;;;;;;;3.33;2.60;;;19.10;44.40;;;;;;6174485;23;20137;-87
2022/05/21 10:55:23;;;;;;;5.88;2.60;;;19.10;44.40;;;;;;6219864;23;20211;-85
2022/05/21 10:58:13;;;;;;;3.80;2.83;;;19.10;44.20;;;;;;6170666;23;20145;-84
2022/05/21 11:00:52;;;;;;;3.65;3.28;;;19.10;44.40;;;;;;6177811;23;20149;-86
2022/05/21 11:03:41;;;;;;;3.10;2.80;;;19.10;44.60;;;;;;6223299;23;20126;-88
2022/05/21 11:06:42;;;;;;;8.63;2.83;;;19.10;43.90;;;;;;6220440;23;20133;-88
2022/05/21 11:09:25;;;;;;;3.47;2.50;;;19.10;43.90;;;;;;6220541;23;20153;-86
2022/05/21 11:12:12;;;;;;;5.70;2.53;;;19.00;43.80;;;;;;6195876;23;20141;-85
2022/05/21 11:14:44;;;;;;;6.95;2.70;;;19.10;43.30;;;;;;6199546;23;20145;-86
2022/05/21 11:17:42;;;;;;;4.07;2.60;;;19.10;43.50;;;;;;6220734;23;20141;-85
2022/05/21 11:20:24;;;;;;;3.17;2.78;;;19.10;43.20;;;;;;6227846;23;20132;-86
2022/05/21 11:22:56;;;;;;;5.35;2.88;;;19.10;43.50;;;;;;6220692;23;20208;-85
2022/05/21 11:25:23;;;;;;;4.97;3.30;;;19.10;43.50;;;;;;6170988;23;20146;-85
2022/05/21 11:27:57;;;;;;;3.75;2.85;;;19.10;43.60;;;;;;6195973;23;20204;-85
2022/05/21 11:30:23;;;;;;;4.15;2.90;;;19.10;43.30;;;;;;6171244;23;20137;-85
2022/05/21 11:38:33;;;;;;;4.35;2.30;;;19.10;43.20;;;;;;6203858;23;20196;-85
2022/05/21 11:46:50;;;;;;;3.05;2.30;;;19.10;43.00;;;;;;6223194;23;20576;-86
2022/05/21 11:49:29;;;;;;;4.55;2.50;;;19.10;42.20;;;;;;6170570;23;20536;-85
2022/05/21 11:51:58;;;;;;;2.97;2.70;;;19.10;42.70;;;;;;6171620;23;20465;-86
2022/05/21 11:54:53;;;;;;;4.18;2.42;;;19.10;42.40;;;;;;6171547;23;20671;-86
2022/05/21 11:57:35;;;;;;;3.00;2.70;;;19.10;42.20;;;;;;6246817;23;20468;-86
2022/05/21 12:00:04;;;;;;;5.30;2.45;;;19.10;42.50;;;;;;6220401;23;20216;-85
2022/05/21 12:02:31;;;;;;;2.97;2.22;;;19.00;42.20;;;;;;6171026;23;20145;-86
2022/05/21 12:04:58;;;;;;;3.92;2.60;;;19.10;42.50;;;;;;6170777;23;20145;-87
2022/05/21 12:07:49;;;;;;;3.70;2.58;;;19.10;42.50;;;;;;6171917;23;20220;-86
2022/05/21 12:10:20;;;;;;;3.00;2.58;;;19.10;41.90;;;;;;6195740;23;20141;-85
2022/05/21 12:13:13;;;;;;;3.00;2.65;;;19.00;42.50;;;;;;6196158;23;20137;-86
2022/05/21 12:15:42;;;;;;;4.90;2.53;;;19.10;42.50;;;;;;6221131;23;20161;-86
2022/05/21 12:18:30;;;;;;;2.78;2.50;;;19.10;42.30;;;;;;6172140;23;20133;-86
2022/05/21 12:20:56;;;;;;;4.63;2.70;;;19.10;42.70;;;;;;6222754;23;20130;-85
2022/05/21 12:23:55;;;;;;;3.95;2.50;;;19.10;42.10;;;;;;6197411;23;20141;-85
2022/05/21 12:26:23;;;;;;;2.47;2.28;;;19.10;41.90;;;;;;6226485;23;20187;-86
2022/05/21 12:29:09;;;;;;;3.63;2.60;;;19.10;42.50;;;;;;6198040;23;20125;-85
2022/05/21 12:31:40;;;;;;;3.13;2.65;;;19.10;42.60;;;;;;6250207;23;20166;-86
2022/05/21 12:34:32;;;;;;;4.30;2.50;;;19.10;42.00;;;;;;6198097;23;20569;-85
2022/05/21 12:37:18;;;;;;;3.35;2.63;;;19.10;42.00;;;;;;6197034;23;20212;-85
2022/05/21 12:39:57;;;;;;;3.47;2.65;;;19.10;41.90;;;;;;6195962;23;20201;-86
2022/05/21 12:42:25;;;;;;;3.95;2.35;;;19.10;41.90;;;;;;6194505;23;20186;-86
2022/05/21 12:44:51;;;;;;;3.63;2.25;;;19.10;41.30;;;;;;6196446;23;20591;-85
2022/05/21 12:47:26;;;;;;;2.75;2.20;;;19.10;41.00;;;;;;6194073;23;20154;-86
2022/05/21 12:49:54;;;;;;;3.30;2.50;;;19.20;41.20;;;;;;6195681;23;20146;-86
2022/05/21 12:52:23;;;;;;;3.50;2.47;;;19.10;41.40;;;;;;6194854;23;20138;-87
2022/05/21 12:55:15;;;;;;;4.00;2.40;;;19.10;41.80;;;;;;6167886;23;20198;-86
2022/05/21 12:57:42;;;;;;;2.55;2.17;;;19.10;41.00;;;;;;6200444;23;20146;-86
2022/05/21 13:00:08;;;;;;;2.92;2.60;;;19.10;41.10;;;;;;6192810;23;20139;-86
2022/05/21 13:02:46;;;;;;;2.55;2.25;;;19.10;41.20;;;;;;6191541;23;20463;-86
2022/05/21 13:05:22;;;;;;;3.30;2.47;;;19.10;41.30;;;;;;6217588;23;20572;-85
2022/05/21 13:07:50;;;;;;;4.65;2.63;;;19.10;41.70;;;;;;6166699;23;20168;-85
2022/05/21 13:10:21;;;;;;;5.25;2.55;;;19.10;41.70;;;;;;6195516;23;20411;-86
2022/05/21 13:12:49;;;;;;;3.20;2.17;;;19.10;42.00;;;;;;6192805;23;20138;-85
2022/05/21 13:15:20;;;;;;;3.00;2.70;;;19.10;41.10;;;;;;6166031;23;20649;-85
2022/05/21 13:17:54;;;;;;;2.85;2.38;;;19.10;41.10;;;;;;6165904;23;20524;-86
2022/05/21 13:20:31;;;;;;;2.30;2.10;;;19.10;40.90;;;;;;6167481;23;20200;-86
2022/05/21 13:23:37;;;;;;;3.38;2.53;;;19.10;40.70;;;;;;6167001;23;20142;-87
2022/05/21 13:26:03;;;;;;;2.95;2.35;;;19.20;40.80;;;;;;6193333;23;20150;-86
2022/05/21 13:28:28;;;;;;;3.08;2.60;;;19.10;40.50;;;;;;6189232;23;20165;-87
2022/05/21 13:30:54;;;;;;;3.72;2.45;;;19.20;40.70;;;;;;6216378;23;20209;-86
2022/05/21 13:33:30;;;;;;;2.72;2.40;;;19.10;40.50;;;;;;6188459;23;20204;-85
2022/05/21 13:35:58;;;;;;;3.05;2.10;;;19.10;40.40;;;;;;6192630;23;20166;-85
2022/05/21 13:38:37;;;;;;;2.38;2.10;;;19.10;40.30;;;;;;6194591;23;20134;-85
2022/05/21 13:41:10;;;;;;;3.30;2.30;;;19.10;40.40;;;;;;6219686;23;20631;-85
2022/05/21 13:43:47;;;;;;;2.78;2.47;;;19.10;40.50;;;;;;6195022;23;20152;-86
2022/05/21 13:46:13;;;;;;;3.97;2.50;;;19.10;40.60;;;;;;6219878;23;20137;-86
2022/05/21 13:48:41;;;;;;;2.78;2.42;;;19.10;41.10;;;;;;6219800;23;20547;-86